Flight OLY945

  • Submitted By: Stavros Sarikas
  • Departure Airport: Dimokritos Airport (LGAL)
  • Arrival Airport: Eleftherios Venizelos International Airport (LGAV)
  • Aircraft: A320-200 (SX-OAR)
  • Flight Time: 00.59
  • Date Submitted: 15/04/2018
  • Route: LMO UG33 NEVRA
  • Status: Accepted
Flight Details
Gross Revenue:
(119 load / € 55.00 per unit
€ 6, 545.00
Fuel Cost:
(2267 fuel used @ 0.19 / unit)
€ 430.73

Additional Log Information:

View Log

Aircraft Used in flight is Airbus A320 British Airways G-EUUU
17:11 Boarding
17:11 Navigation Lights ON at 40 Feet
17:11 Beacon Lights ON at 40 Feet
17:11 Brakes are On
17:13 Engine 2 Started
17:15 Engine 1 Started
17:16 Flaps 3 Selected at 40ft and 0kts
17:18 Brakes are Released
17:18 Pushing back
17:20 Taxi Lights ON at 40 Feet
17:22 Landing Lights ON at 40 AGL
17:22 Strobe Lights ON at 40 Feet
17:23 You Took off @ 138 Knots and Flaps at Position 3 With a heading of 73 Degrees
Departure Weather LGAL 151350Z 04015KT 9999 SCT030 21/10 Q1020
Departure Coordinates 40.8573540861572/ 25.9591824073754
Takeoff Weight=59671KG Fuel Weight=4826KG
17:23 Paused
17:23 Landing Gear Up @ 147 Knots and 100 Feet
17:23 Taxi Lights OFF at 110 Feet
17:23 Unpaused
17:23 Flaps 2 Selected at 1580ft and 147kts
17:24 Flaps 0 Selected at 1840ft and 184kts
17:25 You exceeded maximum bank angle
17:26 Below 10000 feet you are not allowed to go over 250 knots
17:26 Above FL100 you need to switch of the landing lights
17:27 Landing Lights OFF at 10340 AGL
17:32 TOC Reached
18:01 Landing Lights ON at 9830 AGL
18:07 Flaps 1 Selected at 3170ft and 220kts
18:08 Flaps 3 Selected at 1300ft and 193kts
18:08 Landing Gear Down @ 185 Knots and 1280 Feet
18:09 Flaps 4 Selected at 1180ft and 167kts
18:09 Taxi Lights ON at 1160 Feet
18:09 Flaps 5 Selected at 1130ft and 161kts
18:10 You Landed @ 128 Knots with -300 Vertical Speed With a heading of 38 and with 0.9584 G Force
Arrival Weather: LGAV 151420Z 05010KT CAVOK 18/12 Q1017 NOSIG
Arrival Coordinates 37.9289938660714/ 23.9259503811816
Landing Weight=57587KG Fuel Weight=2743KG
18:10 Taxiing to gate
18:10 Landing Lights OFF at 320 AGL
18:10 Strobe Lights OFF at 320 Feet
18:10 Paused
18:10 Flaps 0 Selected at 320ft and 9kts
Pirep logged with OA Virtual Tracking 1.0.2.6

Route Map